Time;durP1;ratioP1;P1;durP2;ratioP2;P2;SDS_P1;SDS_P2;PMS_P1;PMS_P2;Temp;Humidity;BMP_temperature;BMP_pressure;BME280_temperature;BME280_humidity;BME280_pressure;Samples;Min_cycle;Max_cycle;Signal;HPM_P1;HPM_P2
2022/03/17 00:01:37;;;;;;;49.67;16.10;;;11.10;99.90;;;;;;5014712;28;20482;-73
2022/03/17 00:04:03;;;;;;;55.10;20.58;;;11.20;99.90;;;;;;4997551;28;20372;-72
2022/03/17 00:06:28;;;;;;;54.25;21.10;;;11.20;99.90;;;;;;4998246;28;20153;-72
2022/03/17 00:08:54;;;;;;;52.40;18.88;;;11.00;99.90;;;;;;5018535;28;20485;-71
2022/03/17 00:11:20;;;;;;;59.47;21.00;;;11.10;99.90;;;;;;5020040;28;20123;-73
2022/03/17 00:13:46;;;;;;;51.67;20.42;;;11.00;99.90;;;;;;4984880;28;20049;-73
2022/03/17 00:16:12;;;;;;;53.63;19.98;;;11.00;99.90;;;;;;5017690;28;20072;-72
2022/03/17 00:18:38;;;;;;;56.20;21.38;;;11.00;99.90;;;;;;5013298;28;20133;-74
2022/03/17 00:21:04;;;;;;;59.97;18.75;;;11.00;99.90;;;;;;4997309;28;20100;-73
2022/03/17 00:23:30;;;;;;;55.42;20.65;;;10.90;99.90;;;;;;4997049;28;20050;-73
2022/03/17 00:25:56;;;;;;;57.22;20.50;;;10.90;99.90;;;;;;5014447;28;20046;-72
2022/03/17 00:28:22;;;;;;;64.20;20.00;;;11.00;99.90;;;;;;4997822;28;20054;-73
2022/03/17 00:30:48;;;;;;;57.92;20.63;;;10.90;99.90;;;;;;5013447;28;20141;-72
2022/03/17 00:33:13;;;;;;;44.70;16.85;;;10.90;99.90;;;;;;5013709;28;20050;-75
2022/03/17 00:35:42;;;;;;;57.35;21.20;;;10.90;99.90;;;;;;5012588;28;20617;-73
2022/03/17 00:38:18;;;;;;;51.15;17.83;;;10.90;99.90;;;;;;4981340;28;20200;-72
2022/03/17 00:40:46;;;;;;;54.75;20.45;;;10.90;99.90;;;;;;5014174;28;20054;-78
2022/03/17 00:43:14;;;;;;;55.38;19.23;;;10.90;99.90;;;;;;4996877;28;20057;-74
2022/03/17 00:45:42;;;;;;;46.13;17.85;;;10.90;99.90;;;;;;5014140;28;20049;-74
2022/03/17 00:48:09;;;;;;;54.17;20.40;;;10.90;99.90;;;;;;5012916;28;20050;-73
2022/03/17 00:50:35;;;;;;;57.30;20.05;;;10.90;99.90;;;;;;4996642;28;20057;-72
2022/03/17 00:53:01;;;;;;;53.20;19.63;;;10.90;99.90;;;;;;5014383;28;20444;-73
2022/03/17 00:55:28;;;;;;;53.67;19.95;;;10.80;99.90;;;;;;5013381;28;20050;-72
2022/03/17 00:57:54;;;;;;;55.33;20.67;;;10.90;99.90;;;;;;5013146;28;20061;-72
2022/03/17 01:00:21;;;;;;;53.75;20.70;;;10.90;99.90;;;;;;4979542;28;20046;-72
2022/03/17 01:02:53;;;;;;;54.03;19.20;;;10.90;99.90;;;;;;5012576;28;20042;-78
2022/03/17 01:05:19;;;;;;;56.60;21.38;;;10.90;99.90;;;;;;5011965;28;20078;-73
2022/03/17 01:07:45;;;;;;;55.45;20.58;;;10.90;99.90;;;;;;5014091;28;20057;-73
2022/03/17 01:10:15;;;;;;;51.90;18.90;;;10.80;99.90;;;;;;5013275;28;20073;-72
2022/03/17 01:12:43;;;;;;;55.05;20.65;;;10.90;99.90;;;;;;4996238;28;20054;-73
2022/03/17 01:15:10;;;;;;;51.40;18.63;;;10.90;99.90;;;;;;5012201;28;20109;-77
2022/03/17 01:17:35;;;;;;;58.95;20.98;;;10.80;99.90;;;;;;4963301;28;20057;-72
2022/03/17 01:20:02;;;;;;;58.70;21.52;;;10.80;99.90;;;;;;4995072;28;20049;-73
2022/03/17 01:22:28;;;;;;;57.95;21.38;;;10.80;99.90;;;;;;5012518;28;20121;-72
2022/03/17 01:24:53;;;;;;;54.53;21.35;;;10.80;99.90;;;;;;5013179;28;20190;-74
2022/03/17 01:27:20;;;;;;;56.28;21.25;;;10.80;99.90;;;;;;5012271;28;20621;-75
2022/03/17 01:29:50;;;;;;;58.08;22.33;;;10.70;99.90;;;;;;5012671;28;20141;-73
2022/03/17 01:32:16;;;;;;;57.53;21.40;;;10.80;99.90;;;;;;4995282;28;20054;-72
2022/03/17 01:34:42;;;;;;;57.38;21.77;;;10.80;99.90;;;;;;5011177;28;20038;-71
2022/03/17 01:37:08;;;;;;;59.20;20.90;;;10.80;99.90;;;;;;5011048;28;20092;-71
2022/03/17 01:39:34;;;;;;;57.55;19.65;;;10.90;99.90;;;;;;4994904;28;20490;-72
2022/03/17 01:42:04;;;;;;;55.33;19.52;;;10.90;99.90;;;;;;4978810;28;20053;-74
2022/03/17 01:44:30;;;;;;;64.43;25.90;;;10.90;99.90;;;;;;5012833;28;20104;-71
2022/03/17 01:49:41;;;;;;;59.75;22.05;;;10.80;99.90;;;;;;5015775;28;20143;-74
2022/03/17 01:52:07;;;;;;;61.03;22.77;;;10.70;99.90;;;;;;5016856;28;20042;-73
2022/03/17 01:54:37;;;;;;;60.38;24.27;;;10.60;99.90;;;;;;5016687;28;20050;-73
2022/03/17 01:57:05;;;;;;;59.15;22.90;;;10.60;99.90;;;;;;5015229;28;20046;-73
2022/03/17 01:59:32;;;;;;;61.15;23.50;;;10.60;99.90;;;;;;5014838;28;20604;-73
2022/03/17 02:01:58;;;;;;;61.95;22.73;;;10.40;99.90;;;;;;4998263;28;20042;-74
2022/03/17 02:04:24;;;;;;;62.58;22.85;;;10.40;99.90;;;;;;5016469;28;20058;-72
2022/03/17 02:06:53;;;;;;;60.57;22.00;;;10.40;99.90;;;;;;5016065;28;20050;-72
2022/03/17 02:09:19;;;;;;;65.60;23.85;;;10.40;99.90;;;;;;5013999;28;20049;-71
2022/03/17 02:14:34;;;;;;;63.40;25.77;;;10.30;99.90;;;;;;5015081;28;20069;-73
2022/03/17 02:17:00;;;;;;;65.85;25.05;;;10.30;99.90;;;;;;5014132;28;20121;-70
2022/03/17 02:19:26;;;;;;;61.88;23.90;;;10.20;99.90;;;;;;5015751;28;20058;-70
2022/03/17 02:21:52;;;;;;;63.40;23.67;;;10.20;99.90;;;;;;5015096;28;20050;-71
2022/03/17 02:27:03;;;;;;;60.92;23.38;;;10.30;99.90;;;;;;5000649;28;20094;-71
2022/03/17 02:29:31;;;;;;;59.60;23.52;;;10.20;99.90;;;;;;5015566;28;20058;-71
2022/03/17 02:31:58;;;;;;;65.00;25.65;;;10.20;99.90;;;;;;5014568;28;20046;-72
2022/03/17 02:34:23;;;;;;;63.78;24.85;;;10.30;99.90;;;;;;5014446;28;20045;-70
2022/03/17 02:36:51;;;;;;;61.58;22.23;;;10.30;99.90;;;;;;5014396;28;20042;-71
2022/03/17 02:39:19;;;;;;;65.13;23.65;;;10.40;99.90;;;;;;4997449;28;20106;-72
2022/03/17 02:41:45;;;;;;;63.35;25.08;;;10.40;99.90;;;;;;5014589;28;20062;-70
2022/03/17 02:44:12;;;;;;;69.70;26.55;;;10.30;99.90;;;;;;4997714;28;20426;-71
2022/03/17 02:46:38;;;;;;;66.68;25.60;;;10.30;99.90;;;;;;5015356;28;20111;-71
2022/03/17 02:49:05;;;;;;;62.10;24.63;;;10.20;99.90;;;;;;5015511;28;20447;-71
2022/03/17 02:51:31;;;;;;;68.97;26.73;;;10.30;99.90;;;;;;5014153;28;20045;-72
2022/03/17 02:53:57;;;;;;;68.88;24.58;;;10.30;99.90;;;;;;4997742;28;20081;-71
2022/03/17 02:56:23;;;;;;;66.93;26.42;;;10.40;99.90;;;;;;5015040;28;20163;-72
2022/03/17 02:58:49;;;;;;;63.88;25.60;;;10.30;99.90;;;;;;4981230;28;20493;-72
2022/03/17 03:01:14;;;;;;;66.70;26.33;;;10.30;99.90;;;;;;5014074;28;20050;-71
2022/03/17 03:03:40;;;;;;;65.70;25.08;;;10.30;99.90;;;;;;5013464;28;20085;-71
2022/03/17 03:06:06;;;;;;;67.13;26.13;;;10.40;99.90;;;;;;5014660;28;20053;-71
2022/03/17 03:08:33;;;;;;;65.07;25.60;;;10.30;99.90;;;;;;4997036;28;20061;-72
2022/03/17 03:10:59;;;;;;;;;;;10.30;99.90;;;;;;5013926;28;20123;-73
2022/03/17 03:13:25;;;;;;;71.27;27.93;;;10.30;99.90;;;;;;5017650;28;20374;-71
2022/03/17 03:15:51;;;;;;;64.17;25.03;;;10.30;99.90;;;;;;5014783;28;20470;-72
2022/03/17 03:18:18;;;;;;;76.38;29.25;;;10.30;99.90;;;;;;5014707;28;20291;-72
2022/03/17 03:20:44;;;;;;;69.25;27.20;;;10.30;99.90;;;;;;5014581;28;20056;-72
2022/03/17 03:23:10;;;;;;;74.40;30.55;;;10.30;99.90;;;;;;5015082;28;20426;-71
2022/03/17 03:25:36;;;;;;;70.05;27.67;;;10.30;99.90;;;;;;5014050;28;20053;-72
2022/03/17 03:28:09;;;;;;;74.38;26.75;;;10.40;99.90;;;;;;5013630;28;20383;-71
2022/03/17 03:30:36;;;;;;;71.47;26.65;;;10.40;99.90;;;;;;5015011;28;20042;-72
2022/03/17 03:33:03;;;;;;;70.90;28.10;;;10.40;99.90;;;;;;5013069;28;20065;-72
2022/03/17 03:38:14;;;;;;;72.30;28.05;;;10.50;99.90;;;;;;5013536;28;20089;-71
2022/03/17 03:40:39;;;;;;;69.22;27.52;;;10.50;99.90;;;;;;4997143;28;20077;-72
2022/03/17 03:43:05;;;;;;;73.53;28.23;;;10.50;99.90;;;;;;5013053;28;20038;-72
2022/03/17 03:45:32;;;;;;;68.20;27.13;;;10.50;99.90;;;;;;5014614;28;20045;-72
2022/03/17 03:47:57;;;;;;;77.68;28.83;;;10.50;99.90;;;;;;4997277;28;20050;-71
2022/03/17 03:50:25;;;;;;;68.70;27.60;;;10.50;99.90;;;;;;5012759;28;20461;-71
2022/03/17 03:52:51;;;;;;;75.97;32.33;;;10.50;99.90;;;;;;5013097;28;20076;-71
2022/03/17 03:55:17;;;;;;;77.63;31.75;;;10.60;99.90;;;;;;5012895;28;20415;-70
2022/03/17 03:57:46;;;;;;;74.85;29.88;;;10.60;99.90;;;;;;5012843;28;20057;-72
2022/03/17 04:00:54;;;;;;;75.38;29.40;;;10.60;99.90;;;;;;5013018;28;20046;-71
2022/03/17 04:03:03;;;;;;;79.13;31.25;;;10.60;99.90;;;;;;5006836;28;20187;-71
2022/03/17 04:05:31;;;;;;;74.28;30.40;;;10.60;99.90;;;;;;5013451;28;20062;-70
2022/03/17 04:07:57;;;;;;;81.85;31.80;;;10.60;99.90;;;;;;5012179;28;20548;-71
2022/03/17 04:10:24;;;;;;;86.00;31.75;;;10.60;99.90;;;;;;5013599;28;20038;-71
2022/03/17 04:12:50;;;;;;;83.68;33.05;;;10.60;99.90;;;;;;4996513;28;20046;-71
2022/03/17 04:15:16;;;;;;;83.53;29.27;;;10.60;99.90;;;;;;4996264;28;20145;-71
2022/03/17 04:17:42;;;;;;;79.65;30.83;;;10.60;99.90;;;;;;5013708;28;20046;-70
2022/03/17 04:20:09;;;;;;;91.72;33.58;;;10.70;99.90;;;;;;5012225;28;20048;-73
2022/03/17 04:22:35;;;;;;;86.57;33.05;;;10.60;99.90;;;;;;5012472;28;20050;-72
2022/03/17 04:25:01;;;;;;;89.63;32.83;;;10.60;99.90;;;;;;5013896;28;20108;-70
2022/03/17 04:27:27;;;;;;;94.90;35.30;;;10.60;99.90;;;;;;5013265;28;20049;-71
2022/03/17 04:29:54;;;;;;;88.55;32.72;;;10.60;99.90;;;;;;5013562;28;20042;-71
2022/03/17 04:32:20;;;;;;;91.55;34.67;;;10.60;99.90;;;;;;5013692;28;20103;-71
2022/03/17 04:34:46;;;;;;;97.20;35.30;;;10.50;99.90;;;;;;5012659;28;20058;-70
2022/03/17 04:37:12;;;;;;;99.25;35.08;;;10.60;99.90;;;;;;5013727;28;20149;-72
2022/03/17 04:39:37;;;;;;;97.03;37.13;;;10.40;99.90;;;;;;5011957;28;20117;-71
2022/03/17 04:42:03;;;;;;;100.28;36.70;;;10.30;99.90;;;;;;5013552;28;20129;-69
2022/03/17 04:44:29;;;;;;;104.88;36.55;;;10.10;99.90;;;;;;5013715;28;20416;-70
2022/03/17 04:46:55;;;;;;;120.25;42.85;;;10.00;99.90;;;;;;5012037;28;20158;-70
2022/03/17 04:49:20;;;;;;;119.95;43.35;;;9.90;99.90;;;;;;5011950;28;20054;-70
2022/03/17 04:51:46;;;;;;;124.45;39.70;;;9.70;99.90;;;;;;5012363;28;20045;-69
2022/03/17 04:54:12;;;;;;;113.72;38.40;;;9.70;99.90;;;;;;5013360;28;20042;-71
2022/03/17 04:56:37;;;;;;;124.05;40.42;;;9.70;99.90;;;;;;4995148;28;20057;-69
2022/03/17 04:59:03;;;;;;;135.27;41.10;;;9.70;99.90;;;;;;5013089;28;20085;-69
2022/03/17 05:01:29;;;;;;;123.70;39.00;;;9.60;99.90;;;;;;5012607;28;20046;-70
2022/03/17 05:03:55;;;;;;;115.78;34.95;;;9.60;99.90;;;;;;5011049;28;20053;-70
2022/03/17 05:06:21;;;;;;;115.15;36.92;;;9.60;99.90;;;;;;5011536;28;20049;-71
2022/03/17 05:08:46;;;;;;;66.30;21.65;;;9.60;99.90;;;;;;5011440;28;20089;-71
2022/03/17 05:11:13;;;;;;;35.95;11.82;;;9.50;99.90;;;;;;5012523;28;20045;-72
2022/03/17 05:13:39;;;;;;;30.17;10.13;;;9.30;99.90;;;;;;5011612;28;20050;-71
2022/03/17 05:16:06;;;;;;;24.50;8.70;;;9.20;99.90;;;;;;5013191;28;20139;-71
2022/03/17 05:18:32;;;;;;;28.52;11.35;;;9.00;99.90;;;;;;5011172;28;20065;-71
2022/03/17 05:20:57;;;;;;;26.92;12.90;;;8.80;99.90;;;;;;5012273;28;20061;-72
2022/03/17 05:23:23;;;;;;;30.65;14.30;;;8.50;99.90;;;;;;5011747;28;20041;-71
2022/03/17 05:25:50;;;;;;;30.70;12.50;;;8.30;99.90;;;;;;5012911;28;20363;-72
2022/03/17 05:28:17;;;;;;;28.48;12.77;;;8.30;99.90;;;;;;5011105;28;20378;-71
2022/03/17 05:30:44;;;;;;;28.10;12.07;;;8.20;99.90;;;;;;4995069;28;20058;-71
2022/03/17 05:33:11;;;;;;;;;;;8.10;99.90;;;;;;4995474;28;20050;-72
2022/03/17 05:35:38;;;;;;;28.77;12.32;;;8.10;99.90;;;;;;5012421;28;20027;-71
2022/03/17 05:38:04;;;;;;;25.75;11.45;;;8.10;99.90;;;;;;5012747;28;20120;-70
2022/03/17 05:40:30;;;;;;;30.52;12.40;;;8.10;99.90;;;;;;4995184;28;20053;-70
2022/03/17 05:43:00;;;;;;;28.05;12.60;;;8.00;99.90;;;;;;5011057;28;20401;-71
2022/03/17 05:45:27;;;;;;;30.25;12.32;;;8.00;99.90;;;;;;5011787;28;20351;-72
2022/03/17 05:47:55;;;;;;;33.38;13.93;;;7.90;99.90;;;;;;5011464;28;20064;-71
2022/03/17 05:50:23;;;;;;;34.63;13.93;;;7.90;99.90;;;;;;5012246;28;20052;-71
2022/03/17 05:52:49;;;;;;;36.65;14.18;;;7.80;99.90;;;;;;4995152;28;20054;-70
2022/03/17 05:55:18;;;;;;;33.60;12.82;;;7.80;99.90;;;;;;5012455;28;20054;-70
2022/03/17 05:57:46;;;;;;;38.03;15.13;;;7.80;99.90;;;;;;5012385;28;20123;-71
2022/03/17 06:00:17;;;;;;;29.83;13.48;;;7.70;99.90;;;;;;5010977;28;20053;-71
2022/03/17 06:02:43;;;;;;;31.98;13.18;;;7.80;99.90;;;;;;5011643;28;20053;-72
2022/03/17 06:05:09;;;;;;;34.75;14.30;;;7.70;99.90;;;;;;5011719;28;20053;-71
2022/03/17 06:07:46;;;;;;;34.35;13.50;;;7.80;99.90;;;;;;5012566;28;20046;-71
2022/03/17 06:10:13;;;;;;;43.10;15.77;;;7.80;99.90;;;;;;5011402;28;20058;-72
2022/03/17 06:12:40;;;;;;;37.72;12.73;;;7.80;99.90;;;;;;5012771;28;20056;-72
2022/03/17 06:15:07;;;;;;;38.72;14.15;;;7.80;99.90;;;;;;5011028;28;20125;-73
2022/03/17 06:17:44;;;;;;;35.22;13.70;;;7.80;99.90;;;;;;5011513;28;20046;-73
2022/03/17 06:20:16;;;;;;;40.70;14.40;;;7.80;99.90;;;;;;5010997;28;20461;-73
2022/03/17 06:22:48;;;;;;;31.52;13.68;;;7.80;99.90;;;;;;5014111;28;20118;-72
2022/03/17 06:25:17;;;;;;;31.23;10.15;;;7.80;99.90;;;;;;4995200;28;20057;-74
2022/03/17 06:27:44;;;;;;;32.63;11.75;;;7.80;99.90;;;;;;5012549;28;20052;-71
2022/03/17 06:30:19;;;;;;;27.63;10.52;;;7.80;99.90;;;;;;5011909;28;20085;-72
2022/03/17 06:32:45;;;;;;;30.95;10.43;;;7.90;99.90;;;;;;5013140;28;20101;-73
2022/03/17 06:35:15;;;;;;;28.13;10.77;;;7.80;99.90;;;;;;5014934;28;20128;-71
2022/03/17 06:37:41;;;;;;;30.42;11.90;;;7.80;99.90;;;;;;5015579;28;20045;-73
2022/03/17 06:40:08;;;;;;;34.67;10.57;;;7.80;99.90;;;;;;4998346;28;20058;-73
2022/03/17 06:42:34;;;;;;;26.77;9.48;;;7.80;99.90;;;;;;5014700;28;20426;-72
2022/03/17 06:45:00;;;;;;;26.90;9.85;;;7.80;99.90;;;;;;5016431;28;20084;-72
2022/03/17 06:47:26;;;;;;;38.15;10.32;;;7.80;99.90;;;;;;4998085;28;20053;-72
2022/03/17 06:49:52;;;;;;;32.38;8.45;;;7.80;99.90;;;;;;5016132;28;20052;-72
2022/03/17 06:52:18;;;;;;;21.15;7.38;;;7.90;99.90;;;;;;4982332;28;20041;-71
2022/03/17 06:54:44;;;;;;;29.33;8.60;;;7.90;99.90;;;;;;5015618;28;20133;-73
2022/03/17 06:57:10;;;;;;;24.67;6.80;;;7.90;99.90;;;;;;5015637;28;20054;-72
2022/03/17 06:59:36;;;;;;;24.50;6.18;;;7.80;99.90;;;;;;5030758;28;20339;-73
2022/03/17 07:02:02;;;;;;;23.92;6.20;;;7.80;99.90;;;;;;5014160;28;20057;-72
2022/03/17 07:04:28;;;;;;;20.88;5.60;;;7.90;99.90;;;;;;5015304;28;20505;-73
2022/03/17 07:06:53;;;;;;;19.23;5.32;;;7.90;99.90;;;;;;5030066;28;20053;-71
2022/03/17 07:09:19;;;;;;;13.75;3.42;;;7.90;99.90;;;;;;5015014;28;20052;-72
2022/03/17 07:11:46;;;;;;;16.65;4.30;;;7.90;99.90;;;;;;5013892;28;20048;-71
2022/03/17 07:14:12;;;;;;;21.13;3.90;;;7.90;99.90;;;;;;5014766;28;20049;-72
2022/03/17 07:16:39;;;;;;;17.80;4.03;;;7.90;99.90;;;;;;5015222;28;20367;-73
2022/03/17 07:19:04;;;;;;;13.55;3.67;;;7.90;99.90;;;;;;5013571;28;20085;-71
2022/03/17 07:21:30;;;;;;;22.08;3.88;;;7.80;99.90;;;;;;5014910;28;20443;-73
2022/03/17 07:23:56;;;;;;;26.58;3.70;;;7.90;99.90;;;;;;5030824;28;20052;-72
2022/03/17 07:26:21;;;;;;;16.60;4.07;;;7.90;99.90;;;;;;5015293;28;20089;-74
2022/03/17 07:28:48;;;;;;;22.35;3.88;;;7.90;99.90;;;;;;5014025;28;20346;-73
2022/03/17 07:31:15;;;;;;;19.20;3.05;;;7.90;99.90;;;;;;5013595;28;20053;-72
2022/03/17 07:33:42;;;;;;;19.33;2.77;;;7.90;99.90;;;;;;4997206;28;20057;-73
2022/03/17 07:36:07;;;;;;;;;;;7.90;99.90;;;;;;5014948;28;20175;-70
2022/03/17 07:38:33;;;;;;;22.35;3.15;;;7.90;99.90;;;;;;5013161;28;19971;-71
2022/03/17 07:40:59;;;;;;;21.92;2.72;;;7.90;99.90;;;;;;5015024;28;20409;-71
2022/03/17 07:43:25;;;;;;;19.30;3.25;;;8.00;99.90;;;;;;5013197;28;20136;-71
2022/03/17 07:45:53;;;;;;;17.38;2.50;;;8.00;99.90;;;;;;5013004;28;20517;-71
2022/03/17 07:48:18;;;;;;;18.35;1.85;;;8.00;99.90;;;;;;5012813;28;20062;-71
2022/03/17 07:50:44;;;;;;;13.35;1.25;;;8.10;99.90;;;;;;5014532;28;20378;-72
2022/03/17 07:53:10;;;;;;;18.20;2.15;;;8.10;99.90;;;;;;5014317;28;20046;-72
2022/03/17 07:55:36;;;;;;;17.05;1.33;;;8.20;99.90;;;;;;5028818;28;20551;-72
2022/03/17 07:58:02;;;;;;;17.92;2.50;;;8.10;99.90;;;;;;5012655;28;20046;-74
2022/03/17 08:00:28;;;;;;;25.90;1.83;;;8.10;99.90;;;;;;5012964;28;20049;-73
2022/03/17 08:02:54;;;;;;;15.73;2.00;;;8.00;99.90;;;;;;4996435;28;20121;-72
2022/03/17 08:05:20;;;;;;;18.80;1.60;;;8.10;99.90;;;;;;4980286;28;20129;-72
2022/03/17 08:07:46;;;;;;;17.75;1.23;;;8.10;99.90;;;;;;5013215;28;20133;-72
2022/03/17 08:10:13;;;;;;;19.00;1.77;;;8.00;99.90;;;;;;5013628;28;20085;-71
2022/03/17 08:12:39;;;;;;;30.15;2.33;;;8.00;99.90;;;;;;5012932;28;20050;-71
2022/03/17 08:15:05;;;;;;;18.55;1.90;;;8.00;99.90;;;;;;5012365;28;20106;-72
2022/03/17 08:17:33;;;;;;;23.15;2.10;;;8.00;99.90;;;;;;5014072;28;20096;-72
2022/03/17 08:19:59;;;;;;;22.77;1.92;;;8.00;99.90;;;;;;5012935;28;20061;-71
2022/03/17 08:22:28;;;;;;;20.60;2.15;;;8.00;99.90;;;;;;5029282;28;20042;-72
2022/03/17 08:24:53;;;;;;;30.88;3.88;;;7.90;99.90;;;;;;4996330;28;20041;-72
2022/03/17 08:27:19;;;;;;;25.92;2.05;;;7.80;99.90;;;;;;5012439;28;20381;-72
2022/03/17 08:29:47;;;;;;;37.03;3.38;;;7.90;99.90;;;;;;5013500;28;20049;-72
2022/03/17 08:32:13;;;;;;;22.63;2.22;;;7.80;99.90;;;;;;4996564;28;20327;-72
2022/03/17 08:34:38;;;;;;;27.52;2.75;;;7.80;99.90;;;;;;5013170;28;20046;-71
2022/03/17 08:37:04;;;;;;;27.45;1.75;;;7.80;99.90;;;;;;5012279;28;20511;-71
2022/03/17 08:39:30;;;;;;;19.88;1.90;;;7.80;99.90;;;;;;5011633;28;20046;-79
2022/03/17 08:41:56;;;;;;;17.65;1.52;;;7.90;99.90;;;;;;5012157;28;20050;-78
2022/03/17 08:44:23;;;;;;;18.40;1.38;;;7.90;99.90;;;;;;4996239;28;20042;-77
2022/03/17 08:49:33;;;;;;;24.05;1.67;;;7.90;99.90;;;;;;5011559;28;20054;-82
2022/03/17 08:52:01;;;;;;;18.23;1.20;;;7.70;99.90;;;;;;5012226;28;20072;-76
2022/03/17 08:54:27;;;;;;;;;;;8.00;99.90;;;;;;5012525;28;20048;-77
2022/03/17 08:56:59;;;;;;;25.70;2.08;;;7.90;99.90;;;;;;4995034;28;19960;-76
2022/03/17 08:59:36;;;;;;;21.27;1.63;;;7.90;99.90;;;;;;4996203;28;20081;-75
2022/03/17 09:02:03;;;;;;;;;;;7.90;99.90;;;;;;5029169;28;20046;-75
2022/03/17 09:04:29;;;;;;;21.77;1.42;;;7.90;99.90;;;;;;5011888;28;20016;-75
2022/03/17 09:06:59;;;;;;;19.83;1.40;;;8.00;99.90;;;;;;5012725;28;20050;-75
2022/03/17 09:09:26;;;;;;;16.52;1.38;;;8.00;99.90;;;;;;5011361;28;20137;-74
2022/03/17 09:11:52;;;;;;;21.38;2.25;;;8.00;99.90;;;;;;5027974;28;20095;-74
2022/03/17 09:14:18;;;;;;;21.25;1.83;;;8.10;99.90;;;;;;5011560;28;20140;-73
2022/03/17 09:16:44;;;;;;;20.33;1.25;;;8.20;99.90;;;;;;5012354;28;20091;-76
2022/03/17 09:19:09;;;;;;;29.05;1.55;;;8.50;99.90;;;;;;5012604;28;20050;-78
2022/03/17 09:21:35;;;;;;;23.75;2.40;;;8.70;99.90;;;;;;5011847;28;20153;-81
2022/03/17 09:24:03;;;;;;;15.35;1.38;;;8.80;99.90;;;;;;5011373;28;20048;-75
2022/03/17 09:26:30;;;;;;;18.40;1.73;;;8.80;99.90;;;;;;4995824;28;20113;-76
2022/03/17 09:28:56;;;;;;;19.63;1.13;;;8.70;99.90;;;;;;5011736;28;20125;-77
2022/03/17 09:31:22;;;;;;;25.52;1.60;;;8.70;99.90;;;;;;4995609;28;20046;-77
2022/03/17 09:33:49;;;;;;;22.70;1.50;;;;;;;;;;5011715;28;20056;-76
2022/03/17 09:36:16;;;;;;;19.77;1.30;;;8.60;99.90;;;;;;4995465;28;20057;-75
2022/03/17 09:38:42;;;;;;;20.35;1.52;;;8.60;99.90;;;;;;4995078;28;20311;-78
2022/03/17 09:41:24;;;;;;;17.40;1.45;;;8.70;99.90;;;;;;5011738;28;20137;-75
2022/03/17 09:43:53;;;;;;;17.70;1.48;;;8.70;99.90;;;;;;5011622;28;20050;-75
2022/03/17 09:46:23;;;;;;;27.90;1.27;;;8.70;99.90;;;;;;4995094;28;20054;-75
2022/03/17 09:48:53;;;;;;;14.77;1.15;;;8.60;99.90;;;;;;4994635;28;20042;-76
2022/03/17 09:51:22;;;;;;;19.45;1.48;;;8.60;99.90;;;;;;4979135;28;20375;-77
2022/03/17 09:53:49;;;;;;;26.65;1.70;;;8.40;99.90;;;;;;5011732;28;20053;-76
2022/03/17 09:56:14;;;;;;;19.08;1.23;;;8.40;99.90;;;;;;5011511;28;20470;-77
2022/03/17 09:58:40;;;;;;;19.08;1.60;;;8.40;99.90;;;;;;4978924;28;20054;-77
2022/03/17 10:01:07;;;;;;;25.10;1.95;;;8.40;99.90;;;;;;5011255;28;20050;-75
2022/03/17 10:03:34;;;;;;;19.13;2.13;;;8.50;99.90;;;;;;5011319;28;20050;-77
2022/03/17 10:06:06;;;;;;;21.40;1.87;;;8.50;99.90;;;;;;4962785;28;20100;-76
2022/03/17 10:08:33;;;;;;;15.20;1.00;;;8.60;99.90;;;;;;4998596;28;20053;-78
2022/03/17 10:10:59;;;;;;;22.67;1.33;;;8.70;99.90;;;;;;4999582;28;20038;-78
2022/03/17 10:13:26;;;;;;;28.02;2.53;;;8.80;99.90;;;;;;5015574;28;20053;-76
2022/03/17 10:16:10;;;;;;;20.10;1.67;;;8.90;99.90;;;;;;5015108;28;20041;-76
2022/03/17 10:18:39;;;;;;;10.68;0.70;;;9.00;99.90;;;;;;5015158;28;20477;-75
2022/03/17 10:21:07;;;;;;;19.13;1.77;;;9.00;99.90;;;;;;5015892;28;20046;-78
2022/03/17 10:23:48;;;;;;;19.30;1.73;;;9.20;99.90;;;;;;5014804;28;20053;-75
2022/03/17 10:26:50;;;;;;;16.33;1.77;;;9.20;99.90;;;;;;5015343;28;20418;-75
2022/03/17 10:29:19;;;;;;;12.93;1.00;;;9.30;99.90;;;;;;5015047;28;20053;-77
2022/03/17 10:32:01;;;;;;;19.58;1.50;;;9.40;99.90;;;;;;5015286;28;20386;-77
2022/03/17 10:34:33;;;;;;;20.67;2.03;;;9.60;99.90;;;;;;5015670;28;20046;-78
2022/03/17 10:37:07;;;;;;;14.32;1.00;;;9.60;99.90;;;;;;5015288;28;20080;-75
2022/03/17 10:39:45;;;;;;;14.43;1.30;;;9.70;99.90;;;;;;5014391;28;20062;-76
2022/03/17 10:42:15;;;;;;;18.42;1.25;;;10.10;99.90;;;;;;5015017;28;20057;-78
2022/03/17 10:44:46;;;;;;;16.70;1.58;;;10.10;99.90;;;;;;5014380;28;20129;-76
2022/03/17 10:47:11;;;;;;;17.08;0.80;;;10.20;99.90;;;;;;5015832;28;20081;-74
2022/03/17 10:49:38;;;;;;;18.98;1.00;;;10.10;99.90;;;;;;5014178;28;20108;-74
2022/03/17 10:52:04;;;;;;;13.20;0.87;;;10.30;99.90;;;;;;5014738;28;20149;-74
2022/03/17 10:54:31;;;;;;;15.15;0.80;;;10.60;99.90;;;;;;5015100;28;20571;-74
2022/03/17 10:56:57;;;;;;;;;;;10.60;99.90;;;;;;5031016;28;20402;-74
2022/03/17 10:59:34;;;;;;;15.57;0.93;;;10.80;99.90;;;;;;5015061;28;19921;-75
2022/03/17 11:02:03;;;;;;;9.48;1.20;;;10.80;99.90;;;;;;5014257;28;20482;-75
2022/03/17 11:04:29;;;;;;;12.00;1.05;;;10.70;99.90;;;;;;5014205;28;20081;-75
2022/03/17 11:06:57;;;;;;;16.88;2.25;;;10.40;99.90;;;;;;5014373;28;20049;-75
2022/03/17 11:09:23;;;;;;;13.13;1.20;;;10.30;99.90;;;;;;5015223;28;20054;-74
2022/03/17 11:11:49;;;;;;;13.75;1.55;;;10.20;99.90;;;;;;4998078;28;20091;-76
2022/03/17 11:14:15;;;;;;;18.38;1.58;;;10.40;99.90;;;;;;4998707;28;20057;-73
2022/03/17 11:16:47;;;;;;;15.50;1.35;;;10.70;99.90;;;;;;5014993;28;20459;-75
2022/03/17 11:19:17;;;;;;;18.15;1.15;;;10.30;99.90;;;;;;5014389;28;20054;-75
2022/03/17 11:21:48;;;;;;;10.32;1.25;;;10.50;99.90;;;;;;4998560;28;20046;-77
2022/03/17 11:24:21;;;;;;;11.73;1.50;;;10.60;99.90;;;;;;5015034;28;20053;-76
2022/03/17 11:26:49;;;;;;;12.35;1.20;;;10.70;99.90;;;;;;5014689;28;20054;-81
2022/03/17 11:29:17;;;;;;;;;;;10.90;99.90;;;;;;5015181;28;20073;-75
2022/03/17 11:31:56;;;;;;;17.42;1.15;;;11.00;99.90;;;;;;4998072;28;20004;-75
2022/03/17 11:34:42;;;;;;;14.07;1.00;;;11.20;99.90;;;;;;5015104;28;20137;-76
2022/03/17 11:37:27;;;;;;;18.27;1.50;;;11.30;99.90;;;;;;4998047;28;20121;-76
2022/03/17 11:40:19;;;;;;;12.05;1.02;;;11.50;99.90;;;;;;5013576;28;20066;-79
2022/03/17 11:43:03;;;;;;;13.82;1.15;;;11.30;99.90;;;;;;4996128;28;20064;-74
2022/03/17 11:45:37;;;;;;;15.32;0.88;;;11.00;99.90;;;;;;5013910;28;20045;-76
2022/03/17 11:48:09;;;;;;;14.23;1.42;;;11.00;99.90;;;;;;5013208;28;20057;-74
2022/03/17 11:50:38;;;;;;;22.85;1.80;;;10.70;99.90;;;;;;5013682;28;20054;-75
2022/03/17 11:53:20;;;;;;;13.45;2.20;;;10.60;99.90;;;;;;5013413;28;20046;-79
2022/03/17 11:55:46;;;;;;;18.13;1.42;;;10.40;99.90;;;;;;5014119;28;20141;-74
2022/03/17 11:58:39;;;;;;;16.45;1.40;;;10.30;99.90;;;;;;5013738;28;20140;-74
2022/03/17 12:01:13;;;;;;;17.35;1.95;;;10.30;99.90;;;;;;5012994;28;20052;-74
2022/03/17 12:03:47;;;;;;;13.45;1.23;;;10.60;99.90;;;;;;5012705;28;20046;-74
2022/03/17 12:06:24;;;;;;;13.18;1.63;;;10.90;99.90;;;;;;5013933;28;20049;-74
2022/03/17 12:09:04;;;;;;;19.63;2.10;;;11.00;99.90;;;;;;5013256;28;20152;-76
2022/03/17 12:11:45;;;;;;;12.73;1.88;;;11.00;99.90;;;;;;4997254;28;20073;-78
2022/03/17 12:14:14;;;;;;;15.57;1.52;;;11.00;99.90;;;;;;5013339;28;20128;-77
2022/03/17 12:16:55;;;;;;;17.48;1.63;;;10.90;99.90;;;;;;5013061;28;20046;-76
2022/03/17 12:19:28;;;;;;;16.13;1.50;;;11.00;99.90;;;;;;5012995;28;20131;-75
2022/03/17 12:22:00;;;;;;;19.80;2.33;;;10.90;99.90;;;;;;5012453;28;20050;-80
2022/03/17 12:24:52;;;;;;;14.93;1.70;;;10.90;99.90;;;;;;5013618;28;20045;-76
2022/03/17 12:27:22;;;;;;;13.05;1.38;;;11.10;99.90;;;;;;5013112;28;20093;-76
2022/03/17 12:29:57;;;;;;;16.05;1.63;;;11.00;99.90;;;;;;5012850;28;20536;-76
2022/03/17 12:32:25;;;;;;;12.45;1.40;;;11.20;99.90;;;;;;5011946;28;20165;-79
2022/03/17 12:34:53;;;;;;;10.60;1.20;;;11.30;99.90;;;;;;5013368;28;20485;-77
2022/03/17 12:37:23;;;;;;;12.52;1.70;;;11.40;99.90;;;;;;5012335;28;20056;-75
2022/03/17 12:39:51;;;;;;;9.90;1.55;;;11.30;99.90;;;;;;5011850;28;20137;-76
2022/03/17 12:42:22;;;;;;;13.88;1.30;;;11.30;99.90;;;;;;5029127;28;20042;-77
2022/03/17 12:44:52;;;;;;;19.27;1.90;;;11.40;99.90;;;;;;5012461;28;20508;-75
2022/03/17 12:47:20;;;;;;;15.13;1.40;;;11.60;99.90;;;;;;5012336;28;20096;-74
2022/03/17 12:49:47;;;;;;;14.52;1.05;;;11.50;99.90;;;;;;5011976;28;20046;-74
2022/03/17 12:52:25;;;;;;;12.80;1.45;;;11.40;99.90;;;;;;5028615;28;20081;-75
2022/03/17 12:54:55;;;;;;;16.58;2.05;;;11.40;99.90;;;;;;4997691;28;20088;-75
2022/03/17 12:57:23;;;;;;;17.05;1.77;;;11.00;99.90;;;;;;5011916;28;20053;-74